Time;durP1;ratioP1;P1;durP2;ratioP2;P2;SDS_P1;SDS_P2;PMS_P1;PMS_P2;Temp;Humidity;BMP_temperature;BMP_pressure;BME280_temperature;BME280_humidity;BME280_pressure;Samples;Min_cycle;Max_cycle;Signal;HPM_P1;HPM_P2
2022/09/28 00:02:05;;;;;;;22.58;12.45;;;;;;;;;;1742707;81;21064;-66
2022/09/28 00:04:34;;;;;;;22.77;13.05;;;;;;;;;;1752923;82;21100;-66
2022/09/28 00:07:01;;;;;;;20.75;13.30;;;;;;;;;;1752436;82;21080;-66
2022/09/28 00:09:27;;;;;;;20.85;11.73;;;;;;;;;;1753049;82;21072;-67
2022/09/28 00:11:53;;;;;;;24.72;12.15;;;;;;;;;;1736289;82;21004;-66
2022/09/28 00:14:20;;;;;;;20.23;12.50;;;;;;;;;;1751009;82;21044;-67
2022/09/28 00:16:47;;;;;;;22.65;12.43;;;;;;;;;;1752836;82;21119;-67
2022/09/28 00:19:13;;;;;;;21.37;13.20;;;;;;;;;;1753271;82;21072;-67
2022/09/28 00:21:39;;;;;;;21.93;11.90;;;;;;;;;;1736369;82;21079;-67
2022/09/28 00:24:12;;;;;;;20.20;11.83;;;;;;;;;;1733282;82;21064;-67
2022/09/28 00:26:49;;;;;;;20.48;11.50;;;;;;;;;;1741868;81;21065;-67
2022/09/28 00:29:17;;;;;;;21.15;11.53;;;;;;;;;;1739678;82;21006;-67
2022/09/28 00:31:43;;;;;;;22.93;13.35;;;;;;;;;;1739556;82;21073;-67
2022/09/28 00:34:09;;;;;;;22.62;11.88;;;;;;;;;;1710542;83;21021;-67
2022/09/28 00:36:37;;;;;;;22.58;12.98;;;;;;;;;;1727415;82;21069;-67
2022/09/28 00:39:04;;;;;;;21.77;11.68;;;;;;;;;;1738385;82;21078;-69
2022/09/28 00:41:31;;;;;;;21.70;12.55;;;;;;;;;;1739472;82;21009;-69
2022/09/28 00:44:16;;;;;;;22.02;11.53;;;;;;;;;;1737270;82;21093;-70
2022/09/28 00:46:42;;;;;;;20.12;11.73;;;;;;;;;;1738730;82;21072;-70
2022/09/28 00:49:11;;;;;;;23.42;11.65;;;;;;;;;;1734109;82;21092;-70
2022/09/28 00:51:37;;;;;;;22.25;12.43;;;;;;;;;;1695582;85;21119;-70
2022/09/28 00:54:04;;;;;;;20.97;11.80;;;;;;;;;;1733057;82;21026;-67
2022/09/28 00:56:30;;;;;;;20.15;12.37;;;;;;;;;;1738897;82;21046;-68
2022/09/28 00:58:56;;;;;;;21.37;12.45;;;;;;;;;;1728317;82;21156;-67
2022/09/28 01:04:12;;;;;;;22.50;12.33;;;;;;;;;;1723423;79;75235;-73
2022/09/28 01:06:40;;;;;;;23.47;12.55;;;;;;;;;;1702775;82;21023;-73
2022/09/28 01:09:06;;;;;;;19.37;11.68;;;;;;;;;;1707496;84;20972;-72
2022/09/28 01:11:33;;;;;;;20.92;11.40;;;;;;;;;;1706384;84;21047;-72
2022/09/28 01:13:59;;;;;;;21.50;12.18;;;;;;;;;;1649083;85;21134;-72
2022/09/28 01:16:28;;;;;;;21.10;12.55;;;;;;;;;;1757656;80;21014;-72
2022/09/28 01:19:14;;;;;;;20.68;11.25;;;;;;;;;;1768473;80;21023;-72
2022/09/28 01:22:00;;;;;;;21.05;11.80;;;;;;;;;;1763460;80;21082;-72
2022/09/28 01:24:28;;;;;;;22.37;11.80;;;;;;;;;;1684846;85;21155;-72
2022/09/28 01:26:56;;;;;;;22.30;12.63;;;;;;;;;;1649144;87;21154;-73
2022/09/28 01:29:34;;;;;;;21.85;12.80;;;;;;;;;;1678247;83;21063;-72
2022/09/28 01:32:02;;;;;;;22.22;11.80;;;;;;;;;;1717752;83;21067;-72
2022/09/28 01:34:30;;;;;;;20.88;13.03;;;;;;;;;;1774141;80;21086;-71
2022/09/28 01:36:57;;;;;;;24.60;12.60;;;;;;;;;;1777805;80;20970;-71
2022/09/28 01:39:25;;;;;;;24.92;13.32;;;;;;;;;;1750107;80;21544;-72
2022/09/28 01:41:52;;;;;;;23.85;13.48;;;;;;;;;;1692423;82;21074;-72
2022/09/28 01:44:18;;;;;;;25.32;12.95;;;;;;;;;;1668588;84;21048;-72
2022/09/28 01:46:45;;;;;;;25.32;13.38;;;;;;;;;;1704120;84;21049;-72
2022/09/28 01:49:15;;;;;;;31.07;14.83;;;;;;;;;;1690368;84;21037;-71
2022/09/28 01:51:54;;;;;;;26.93;13.50;;;;;;;;;;1682578;85;21053;-71
2022/09/28 01:54:23;;;;;;;26.70;14.80;;;;;;;;;;1706845;84;21549;-70
2022/09/28 01:56:51;;;;;;;27.60;14.07;;;;;;;;;;1710453;83;21610;-71
2022/09/28 01:59:20;;;;;;;27.48;14.05;;;;;;;;;;1685674;84;21072;-71
2022/09/28 02:01:51;;;;;;;31.70;14.47;;;;;;;;;;1682445;85;21068;-70
2022/09/28 02:04:20;;;;;;;27.62;14.65;;;;;;;;;;1698297;84;21065;-71
2022/09/28 02:06:50;;;;;;;31.23;14.58;;;;;;;;;;1710699;84;21104;-71
2022/09/28 02:09:21;;;;;;;22.77;13.40;;;;;;;;;;1714080;82;21064;-71
2022/09/28 02:11:50;;;;;;;26.50;14.03;;;;;;;;;;1711039;84;21104;-71
2022/09/28 02:14:16;;;;;;;24.60;13.43;;;;;;;;;;1732089;82;21571;-72
2022/09/28 02:16:46;;;;;;;22.27;13.30;;;;;;;;;;1710247;84;21532;-72
2022/09/28 02:19:20;;;;;;;28.23;14.75;;;;;;;;;;1709586;82;21005;-71
2022/09/28 02:22:05;;;;;;;20.95;12.53;;;;;;;;;;1709520;84;21041;-71
2022/09/28 02:24:47;;;;;;;23.80;12.85;;;;;;;;;;1728198;82;21043;-71
2022/09/28 02:27:16;;;;;;;22.80;12.47;;;;;;;;;;1695332;84;21123;-71
2022/09/28 02:29:42;;;;;;;23.42;12.75;;;;;;;;;;1772833;79;22081;-71
2022/09/28 02:32:09;;;;;;;22.55;12.80;;;;;;;;;;1776687;80;21539;-70
2022/09/28 02:34:35;;;;;;;21.77;11.60;;;;;;;;;;1769184;79;21014;-71
2022/09/28 02:37:01;;;;;;;25.77;12.50;;;;;;;;;;1768358;81;21005;-71
2022/09/28 02:39:28;;;;;;;26.27;14.05;;;;;;;;;;1766641;80;21069;-71
2022/09/28 02:42:02;;;;;;;24.23;13.45;;;;;;;;;;1766399;81;20962;-71
2022/09/28 02:44:36;;;;;;;22.37;12.65;;;;;;;;;;1772284;79;21029;-71
2022/09/28 02:47:13;;;;;;;22.80;13.22;;;;;;;;;;1753770;79;21363;-71
2022/09/28 02:49:48;;;;;;;21.73;12.35;;;;;;;;;;1756676;81;21048;-71
2022/09/28 02:52:16;;;;;;;23.47;12.85;;;;;;;;;;1736282;82;21042;-72
2022/09/28 02:54:44;;;;;;;23.95;13.10;;;;;;;;;;1772813;79;22033;-72
2022/09/28 02:57:29;;;;;;;29.00;14.28;;;;;;;;;;1748666;81;21556;-73
2022/09/28 03:00:00;;;;;;;26.90;15.15;;;;;;;;;;1770112;79;21060;-72
2022/09/28 03:02:31;;;;;;;28.02;14.15;;;;;;;;;;1755801;81;21048;-72
2022/09/28 03:05:03;;;;;;;24.32;13.55;;;;;;;;;;1739538;82;21017;-72
2022/09/28 03:07:51;;;;;;;27.60;13.00;;;;;;;;;;1739557;81;21096;-72
2022/09/28 03:10:25;;;;;;;23.22;13.18;;;;;;;;;;1773557;79;21080;-72
2022/09/28 03:12:53;;;;;;;23.67;13.58;;;;;;;;;;1773787;80;21075;-72
2022/09/28 03:15:21;;;;;;;26.77;14.10;;;;;;;;;;1772007;79;21024;-72
2022/09/28 03:17:47;;;;;;;25.23;13.80;;;;;;;;;;1775237;80;21072;-72
2022/09/28 03:20:14;;;;;;;24.00;13.10;;;;;;;;;;1774414;80;21145;-72
2022/09/28 03:22:40;;;;;;;25.08;13.48;;;;;;;;;;1780525;80;21033;-71
2022/09/28 03:25:07;;;;;;;23.80;13.05;;;;;;;;;;1778076;79;21028;-71
2022/09/28 03:27:33;;;;;;;20.72;12.28;;;;;;;;;;1743633;80;20992;-71
2022/09/28 03:30:00;;;;;;;22.65;12.20;;;;;;;;;;1773664;79;21033;-72
2022/09/28 03:32:26;;;;;;;25.72;13.08;;;;;;;;;;1776670;80;21592;-72
2022/09/28 03:34:53;;;;;;;24.15;13.22;;;;;;;;;;1774847;80;21091;-72
2022/09/28 03:37:19;;;;;;;21.15;13.65;;;;;;;;;;1773831;79;21036;-72
2022/09/28 03:39:45;;;;;;;21.07;12.00;;;;;;;;;;1773672;79;21242;-72
2022/09/28 03:42:12;;;;;;;21.10;12.58;;;;;;;;;;1774633;80;21617;-71
2022/09/28 03:44:39;;;;;;;21.70;12.85;;;;;;;;;;1774353;79;21036;-71
2022/09/28 03:47:06;;;;;;;20.08;12.05;;;;;;;;;;1730499;81;21009;-71
2022/09/28 03:49:32;;;;;;;21.15;11.90;;;;;;;;;;1774294;79;21008;-71
2022/09/28 03:51:58;;;;;;;21.48;12.28;;;;;;;;;;1774959;80;20969;-71
2022/09/28 03:54:24;;;;;;;17.35;11.73;;;;;;;;;;1774231;79;20996;-72
2022/09/28 03:56:50;;;;;;;19.65;11.85;;;;;;;;;;1773819;79;21001;-70
2022/09/28 03:59:17;;;;;;;18.52;11.45;;;;;;;;;;1775259;79;20984;-70
2022/09/28 04:01:43;;;;;;;20.20;11.43;;;;;;;;;;1773835;79;20996;-71
2022/09/28 04:04:12;;;;;;;18.77;11.60;;;;;;;;;;1770251;79;21009;-71
2022/09/28 04:06:38;;;;;;;18.27;11.10;;;;;;;;;;1739080;82;21077;-71
2022/09/28 04:09:04;;;;;;;19.17;10.58;;;;;;;;;;1739409;80;21558;-72
2022/09/28 04:11:31;;;;;;;19.37;11.83;;;;;;;;;;1739535;82;21060;-72
2022/09/28 04:13:58;;;;;;;19.23;11.60;;;;;;;;;;1761153;80;21466;-72
2022/09/28 04:16:25;;;;;;;18.52;11.35;;;;;;;;;;1748402;82;21060;-72
2022/09/28 04:18:56;;;;;;;20.70;11.97;;;;;;;;;;1758290;80;20995;-72
2022/09/28 04:21:27;;;;;;;21.10;11.38;;;;;;;;;;1746354;82;21081;-72
2022/09/28 04:23:58;;;;;;;20.85;12.68;;;;;;;;;;1742659;80;21016;-72
2022/09/28 04:26:23;;;;;;;20.15;12.30;;;;;;;;;;1766358;80;21032;-72
2022/09/28 04:31:43;;;;;;;22.05;12.93;;;;;;;;;;1724295;82;21051;-70
2022/09/28 04:34:09;;;;;;;22.10;13.45;;;;;;;;;;1748358;82;21099;-71
2022/09/28 04:36:35;;;;;;;23.18;13.60;;;;;;;;;;1763016;80;21469;-72
2022/09/28 04:39:02;;;;;;;23.30;12.58;;;;;;;;;;1759806;80;21110;-73
2022/09/28 04:41:30;;;;;;;21.12;12.65;;;;;;;;;;1757170;80;22202;-71
2022/09/28 04:43:56;;;;;;;20.25;12.63;;;;;;;;;;1755578;80;21126;-71
2022/09/28 04:46:25;;;;;;;20.70;12.82;;;;;;;;;;1752099;80;21035;-71
2022/09/28 04:49:09;;;;;;;21.40;12.98;;;;;;;;;;1737608;82;21094;-71
2022/09/28 04:51:46;;;;;;;20.02;12.70;;;;;;;;;;1750731;80;21040;-72
2022/09/28 04:54:13;;;;;;;21.25;13.40;;;;;;;;;;1743945;82;21574;-71
2022/09/28 04:56:40;;;;;;;21.62;12.60;;;;;;;;;;1739460;80;21004;-73
2022/09/28 04:59:07;;;;;;;18.75;12.20;;;;;;;;;;1740090;82;20996;-73
2022/09/28 05:01:35;;;;;;;22.25;13.28;;;;;;;;;;1741619;80;21018;-71
2022/09/28 05:04:20;;;;;;;22.37;13.08;;;;;;;;;;1742211;80;21384;-70
2022/09/28 05:06:57;;;;;;;20.72;11.95;;;;;;;;;;1774502;79;21111;-72
2022/09/28 05:09:24;;;;;;;21.55;13.08;;;;;;;;;;1777746;80;21080;-71
2022/09/28 05:11:51;;;;;;;20.90;12.50;;;;;;;;;;1774918;80;21050;-70
2022/09/28 05:14:23;;;;;;;21.75;12.23;;;;;;;;;;1776217;79;21092;-70
2022/09/28 05:16:50;;;;;;;24.67;12.95;;;;;;;;;;1788793;79;21533;-70
2022/09/28 05:19:30;;;;;;;22.67;14.07;;;;;;;;;;1775647;80;21026;-73
2022/09/28 05:21:59;;;;;;;22.98;13.78;;;;;;;;;;1775642;79;21638;-71
2022/09/28 05:24:25;;;;;;;23.30;13.75;;;;;;;;;;1777660;79;21751;-73
2022/09/28 05:26:54;;;;;;;22.07;13.65;;;;;;;;;;1775087;79;21067;-74
2022/09/28 05:29:21;;;;;;;24.35;13.93;;;;;;;;;;1774960;79;21089;-71
2022/09/28 05:31:48;;;;;;;23.60;14.10;;;;;;;;;;1777934;80;21001;-71
2022/09/28 05:34:29;;;;;;;21.57;12.65;;;;;;;;;;1739293;79;21107;-72
2022/09/28 05:36:55;;;;;;;20.97;11.80;;;;;;;;;;1777833;79;21324;-72
2022/09/28 05:39:21;;;;;;;20.35;13.50;;;;;;;;;;1815338;79;21004;-72
2022/09/28 05:41:47;;;;;;;23.75;12.93;;;;;;;;;;1807598;79;21071;-72
2022/09/28 05:44:13;;;;;;;20.57;12.15;;;;;;;;;;1786966;79;21035;-72
2022/09/28 05:46:41;;;;;;;20.65;12.40;;;;;;;;;;1746923;81;21029;-72
2022/09/28 05:49:08;;;;;;;20.08;12.47;;;;;;;;;;1785860;79;20993;-72
2022/09/28 05:51:35;;;;;;;24.32;13.28;;;;;;;;;;1785068;79;21457;-71
2022/09/28 05:54:01;;;;;;;19.12;12.53;;;;;;;;;;1788514;79;21036;-73
2022/09/28 05:56:30;;;;;;;22.10;13.20;;;;;;;;;;1774600;79;21567;-72
2022/09/28 05:58:57;;;;;;;20.00;12.43;;;;;;;;;;1784964;79;21362;-76
2022/09/28 06:01:25;;;;;;;20.17;12.75;;;;;;;;;;1782088;79;21044;-74
2022/09/28 06:03:52;;;;;;;20.50;12.73;;;;;;;;;;1779270;80;21610;-72
2022/09/28 06:06:19;;;;;;;22.27;13.90;;;;;;;;;;1778758;80;21053;-73
2022/09/28 06:08:47;;;;;;;23.18;15.30;;;;;;;;;;1777074;80;21001;-75
2022/09/28 06:11:32;;;;;;;23.52;13.40;;;;;;;;;;1768123;80;21041;-71
2022/09/28 06:14:01;;;;;;;22.45;12.98;;;;;;;;;;1725378;81;21046;-71
2022/09/28 06:16:28;;;;;;;17.65;12.07;;;;;;;;;;1746235;81;22106;-71
2022/09/28 06:18:56;;;;;;;19.67;12.20;;;;;;;;;;1738592;81;21050;-70
2022/09/28 06:21:36;;;;;;;14.85;9.48;;;;;;;;;;1702981;81;20989;-71
2022/09/28 06:24:03;;;;;;;15.50;9.63;;;;;;;;;;1785084;79;21030;-70
2022/09/28 06:26:30;;;;;;;13.48;8.73;;;;;;;;;;1778152;79;21103;-74
2022/09/28 06:28:56;;;;;;;17.42;9.65;;;;;;;;;;1783468;79;21000;-73
2022/09/28 06:31:25;;;;;;;13.58;8.73;;;;;;;;;;1791440;79;20934;-72
2022/09/28 06:33:53;;;;;;;15.75;9.13;;;;;;;;;;1771028;79;21612;-76
2022/09/28 06:36:19;;;;;;;14.13;8.10;;;;;;;;;;1770053;79;21009;-74
2022/09/28 06:38:45;;;;;;;14.15;8.70;;;;;;;;;;1750668;80;21052;-72
2022/09/28 06:41:13;;;;;;;16.05;9.18;;;;;;;;;;1769666;80;21025;-76
2022/09/28 06:43:41;;;;;;;13.18;8.73;;;;;;;;;;1778241;79;21567;-74
2022/09/28 06:46:25;;;;;;;12.33;8.58;;;;;;;;;;1777426;81;21021;-73
2022/09/28 06:48:56;;;;;;;12.13;7.75;;;;;;;;;;1779418;79;20970;-73
2022/09/28 06:51:27;;;;;;;12.82;8.20;;;;;;;;;;1726392;81;21061;-75
2022/09/28 06:53:58;;;;;;;24.18;16.80;;;;;;;;;;1774581;80;21627;-73
2022/09/28 06:56:33;;;;;;;18.65;12.33;;;;;;;;;;1740420;79;21091;-73
2022/09/28 06:58:59;;;;;;;11.38;7.80;;;;;;;;;;1766727;79;21555;-75
2022/09/28 07:01:25;;;;;;;12.80;6.92;;;;;;;;;;1766101;81;20989;-75
2022/09/28 07:03:53;;;;;;;10.80;7.47;;;;;;;;;;1730666;81;21014;-75
2022/09/28 07:06:38;;;;;;;11.15;7.03;;;;;;;;;;1731606;81;21026;-74
2022/09/28 07:09:18;;;;;;;12.68;7.37;;;;;;;;;;1699530;82;21045;-73
2022/09/28 07:12:03;;;;;;;12.68;7.90;;;;;;;;;;1610480;86;21140;-73
2022/09/28 07:14:35;;;;;;;12.15;7.75;;;;;;;;;;1694126;84;21073;-73
2022/09/28 07:17:02;;;;;;;12.95;8.58;;;;;;;;;;1705996;82;21025;-72
2022/09/28 07:19:28;;;;;;;11.35;7.70;;;;;;;;;;1727374;81;22381;-73
2022/09/28 07:21:56;;;;;;;11.70;7.78;;;;;;;;;;1728590;81;21013;-72
2022/09/28 07:24:23;;;;;;;13.10;8.25;;;;;;;;;;1736339;81;21041;-76
2022/09/28 07:26:54;;;;;;;13.83;8.70;;;;;;;;;;1711236;82;21662;-75
2022/09/28 07:29:34;;;;;;;15.25;8.65;;;;;;;;;;1717387;82;21037;-75
2022/09/28 07:32:02;;;;;;;15.80;8.68;;;;;;;;;;1698893;83;21043;-78
2022/09/28 07:34:30;;;;;;;14.53;8.65;;;;;;;;;;1697456;83;20961;-77
2022/09/28 07:37:01;;;;;;;14.80;8.95;;;;;;;;;;1745560;82;21076;-72
2022/09/28 07:39:27;;;;;;;13.40;8.60;;;;;;;;;;1715985;82;21022;-71
2022/09/28 07:41:54;;;;;;;11.20;8.35;;;;;;;;;;1735718;81;21060;-73
2022/09/28 07:44:21;;;;;;;14.98;8.65;;;;;;;;;;1741085;81;21029;-75
2022/09/28 07:46:49;;;;;;;13.78;8.63;;;;;;;;;;1742783;81;21060;-77
2022/09/28 07:49:18;;;;;;;14.30;8.65;;;;;;;;;;1707817;83;21056;-74
2022/09/28 07:51:55;;;;;;;13.13;8.18;;;;;;;;;;1733689;81;21654;-74
2022/09/28 07:54:30;;;;;;;11.73;8.00;;;;;;;;;;1736329;81;21520;-75
2022/09/28 07:57:01;;;;;;;12.78;7.78;;;;;;;;;;1745684;81;20996;-73
2022/09/28 07:59:45;;;;;;;13.35;8.18;;;;;;;;;;1698389;83;21029;-78
2022/09/28 08:02:25;;;;;;;14.55;8.10;;;;;;;;;;1652601;83;21077;-74
2022/09/28 08:04:52;;;;;;;13.80;8.30;;;;;;;;;;1721819;82;21538;-78
2022/09/28 08:07:18;;;;;;;12.13;8.38;;;;;;;;;;1711708;82;20979;-77
2022/09/28 08:09:46;;;;;;;14.18;8.65;;;;;;;;;;1736524;82;22195;-79
2022/09/28 08:12:29;;;;;;;16.67;8.83;;;;;;;;;;1736623;82;21054;-77
2022/09/28 08:15:12;;;;;;;16.07;9.38;;;;;;;;;;1721813;81;21549;-79
2022/09/28 08:17:57;;;;;;;13.72;8.33;;;;;;;;;;1733234;81;21035;-75
2022/09/28 08:23:10;;;;;;;15.25;8.98;;;;;;;;;;1782765;79;21079;-72
2022/09/28 08:25:37;;;;;;;16.52;9.13;;;;;;;;;;1765877;79;21005;-78
2022/09/28 08:28:07;;;;;;;15.65;10.00;;;;;;;;;;1783315;79;21116;-77
2022/09/28 08:30:35;;;;;;;13.45;7.65;;;;;;;;;;1771849;79;21064;-76
2022/09/28 08:33:06;;;;;;;15.80;9.10;;;;;;;;;;1721115;80;21107;-76
2022/09/28 08:35:44;;;;;;;15.60;9.00;;;;;;;;;;1772236;79;21052;-73
2022/09/28 08:38:12;;;;;;;14.63;9.08;;;;;;;;;;1771529;80;21058;-77
2022/09/28 08:40:59;;;;;;;15.63;8.65;;;;;;;;;;1771015;79;21036;-74
2022/09/28 08:43:49;;;;;;;12.37;7.60;;;;;;;;;;1777571;79;21045;-72
2022/09/28 08:46:21;;;;;;;14.13;8.48;;;;;;;;;;1701047;84;21094;-74
2022/09/28 08:48:54;;;;;;;14.80;8.08;;;;;;;;;;1739779;79;21013;-80
2022/09/28 08:51:29;;;;;;;13.72;9.10;;;;;;;;;;1777701;79;21555;-80
2022/09/28 08:54:06;;;;;;;13.15;8.20;;;;;;;;;;1730098;80;21013;-80
2022/09/28 08:56:41;;;;;;;12.73;8.13;;;;;;;;;;1772282;80;21096;-78
2022/09/28 08:59:11;;;;;;;12.65;8.28;;;;;;;;;;1774324;80;20976;-78
2022/09/28 09:01:45;;;;;;;10.08;6.58;;;;;;;;;;1775786;80;21100;-78
2022/09/28 09:04:12;;;;;;;15.18;7.92;;;;;;;;;;1774957;80;22467;-78
2022/09/28 09:07:17;;;;;;;15.63;9.08;;;;;;;;;;1778475;80;21173;-83
2022/09/28 09:09:50;;;;;;;15.72;9.83;;;;;;;;;;1804348;79;21484;-79
2022/09/28 09:12:35;;;;;;;13.98;8.28;;;;;;;;;;1765772;80;21008;-82
2022/09/28 09:15:16;;;;;;;12.25;8.15;;;;;;;;;;1772183;80;21041;-76
2022/09/28 09:17:48;;;;;;;13.25;8.20;;;;;;;;;;1782673;79;21606;-77
2022/09/28 09:20:21;;;;;;;14.47;8.70;;;;;;;;;;1779112;79;21096;-78
2022/09/28 09:23:03;;;;;;;14.10;8.10;;;;;;;;;;1778833;79;21036;-74
2022/09/28 09:25:40;;;;;;;14.47;8.23;;;;;;;;;;1761270;80;21048;-74
2022/09/28 09:28:18;;;;;;;12.28;7.85;;;;;;;;;;1776958;79;21005;-76
2022/09/28 09:30:59;;;;;;;11.85;7.55;;;;;;;;;;1780106;79;21040;-73
2022/09/28 09:33:34;;;;;;;12.55;8.08;;;;;;;;;;1774401;79;21071;-75
2022/09/28 09:36:23;;;;;;;15.10;8.15;;;;;;;;;;1769082;79;20981;-77
2022/09/28 09:39:22;;;;;;;13.30;8.60;;;;;;;;;;1773280;79;21035;-85
2022/09/28 09:42:25;;;;;;;13.32;7.62;;;;;;;;;;1775221;79;21044;-78
2022/09/28 09:45:29;;;;;;;12.82;8.10;;;;;;;;;;1791685;79;21005;-74
2022/09/28 09:48:19;;;;;;;12.20;8.05;;;;;;;;;;1774455;79;21028;-79
2022/09/28 09:50:48;;;;;;;11.75;7.65;;;;;;;;;;1730200;82;21033;-79
2022/09/28 09:53:16;;;;;;;13.62;8.28;;;;;;;;;;1708595;83;21057;-74
2022/09/28 09:55:43;;;;;;;12.78;7.55;;;;;;;;;;1709806;83;21611;-72
2022/09/28 09:58:20;;;;;;;12.98;7.60;;;;;;;;;;1692745;82;21079;-75
2022/09/28 10:00:50;;;;;;;12.75;8.53;;;;;;;;;;1710230;82;21092;-72
2022/09/28 10:03:28;;;;;;;8.50;6.30;;;;;;;;;;1701076;84;21064;-74
2022/09/28 10:05:58;;;;;;;12.95;8.28;;;;;;;;;;1718401;82;20997;-78
2022/09/28 10:08:26;;;;;;;11.10;7.90;;;;;;;;;;1716969;82;21001;-77
2022/09/28 10:10:54;;;;;;;11.25;7.80;;;;;;;;;;1714758;82;20969;-74
2022/09/28 10:13:22;;;;;;;12.60;8.15;;;;;;;;;;1722538;82;21456;-71
2022/09/28 10:15:50;;;;;;;12.03;8.53;;;;;;;;;;1710748;82;21059;-76
2022/09/28 10:18:27;;;;;;;9.63;6.40;;;;;;;;;;1703413;82;21123;-78
2022/09/28 10:21:12;;;;;;;12.73;8.50;;;;;;;;;;1711664;83;21495;-78
2022/09/28 10:23:45;;;;;;;12.75;7.60;;;;;;;;;;1706373;82;21004;-75
2022/09/28 10:26:15;;;;;;;12.37;7.92;;;;;;;;;;1712401;82;21003;-76
2022/09/28 10:28:56;;;;;;;12.20;7.75;;;;;;;;;;1710614;82;21079;-73
2022/09/28 10:31:26;;;;;;;12.93;8.15;;;;;;;;;;1711574;82;21507;-74
2022/09/28 10:33:52;;;;;;;13.28;8.13;;;;;;;;;;1722763;82;21604;-74
2022/09/28 10:36:18;;;;;;;12.18;8.35;;;;;;;;;;1711972;82;21028;-73
2022/09/28 10:38:46;;;;;;;11.38;8.13;;;;;;;;;;1710870;82;21028;-77
2022/09/28 10:41:15;;;;;;;11.45;7.90;;;;;;;;;;1708635;83;21087;-77
2022/09/28 10:44:05;;;;;;;14.78;9.25;;;;;;;;;;1712579;83;21131;-77
2022/09/28 10:46:58;;;;;;;13.98;8.95;;;;;;;;;;1718087;82;21041;-77
2022/09/28 10:49:27;;;;;;;13.98;8.73;;;;;;;;;;1711249;82;21092;-78
2022/09/28 10:51:56;;;;;;;12.82;8.28;;;;;;;;;;1717825;82;21030;-76
2022/09/28 10:54:24;;;;;;;13.30;8.98;;;;;;;;;;1718641;82;21036;-76
2022/09/28 10:56:52;;;;;;;12.85;8.53;;;;;;;;;;1710638;82;21050;-77
2022/09/28 10:59:30;;;;;;;12.28;8.73;;;;;;;;;;1761624;80;21507;-77
2022/09/28 11:02:16;;;;;;;13.70;9.00;;;;;;;;;;1760833;80;21019;-75
2022/09/28 11:04:42;;;;;;;15.60;8.50;;;;;;;;;;1767428;80;20972;-76
2022/09/28 11:07:13;;;;;;;13.30;8.68;;;;;;;;;;1770995;79;21007;-76
2022/09/28 11:09:40;;;;;;;11.80;7.72;;;;;;;;;;1785358;79;21087;-74
2022/09/28 11:12:09;;;;;;;11.25;7.50;;;;;;;;;;1747294;80;21008;-75
2022/09/28 11:14:41;;;;;;;14.93;8.43;;;;;;;;;;1783297;79;21077;-75
2022/09/28 11:30:29;;;;;;;14.18;11.12;;;;;;;;;;1777401;79;39125;-68
2022/09/28 11:33:05;;;;;;;13.53;9.73;;;;;;;;;;1730348;81;21047;-69
2022/09/28 11:35:52;;;;;;;14.65;8.98;;;;;;;;;;1754414;81;21036;-67
2022/09/28 11:38:38;;;;;;;11.80;8.78;;;;;;;;;;1753791;80;21076;-68
2022/09/28 11:41:29;;;;;;;12.50;8.65;;;;;;;;;;1755300;81;21100;-67
2022/09/28 11:44:06;;;;;;;13.28;9.48;;;;;;;;;;1760031;80;21042;-67
2022/09/28 11:46:50;;;;;;;14.07;9.78;;;;;;;;;;1755541;81;21017;-68
2022/09/28 11:49:21;;;;;;;12.93;9.60;;;;;;;;;;1735115;81;21013;-68
2022/09/28 11:51:49;;;;;;;11.53;8.75;;;;;;;;;;1755149;81;21040;-70
2022/09/28 11:54:32;;;;;;;14.75;10.80;;;;;;;;;;1753008;80;21052;-68
2022/09/28 11:56:58;;;;;;;12.20;9.63;;;;;;;;;;1756261;81;21076;-67
2022/09/28 11:59:26;;;;;;;12.28;8.85;;;;;;;;;;1757600;81;21535;-68
2022/09/28 12:01:57;;;;;;;11.65;9.20;;;;;;;;;;1762171;80;20997;-67
2022/09/28 12:04:27;;;;;;;10.40;7.97;;;;;;;;;;1752804;80;21045;-68
2022/09/28 12:07:05;;;;;;;13.80;9.85;;;;;;;;;;1759785;80;21016;-67
2022/09/28 12:09:34;;;;;;;13.55;10.18;;;;;;;;;;1758729;80;21140;-69
2022/09/28 12:12:04;;;;;;;13.55;10.28;;;;;;;;;;1752611;80;22090;-68
2022/09/28 12:14:37;;;;;;;12.68;9.33;;;;;;;;;;1765750;80;21079;-67
2022/09/28 12:17:04;;;;;;;13.18;9.15;;;;;;;;;;1760712;80;20994;-68
2022/09/28 12:19:33;;;;;;;12.55;10.30;;;;;;;;;;1765455;80;21598;-67
2022/09/28 12:22:00;;;;;;;12.20;9.83;;;;;;;;;;1771123;78;21012;-69
2022/09/28 12:24:32;;;;;;;12.80;9.40;;;;;;;;;;1778306;78;21597;-68
2022/09/28 12:27:03;;;;;;;13.27;9.13;;;;;;;;;;1778620;78;21024;-67
2022/09/28 12:29:31;;;;;;;14.55;11.20;;;;;;;;;;1776053;78;21546;-68
2022/09/28 12:32:02;;;;;;;11.10;9.75;;;;;;;;;;1769716;79;21047;-68
2022/09/28 12:34:28;;;;;;;12.07;9.60;;;;;;;;;;1772664;79;21058;-66
2022/09/28 12:37:05;;;;;;;12.55;9.88;;;;;;;;;;1775090;79;21623;-65
2022/09/28 12:39:40;;;;;;;13.88;8.20;;;;;;;;;;1777642;79;21058;-67
2022/09/28 12:42:08;;;;;;;10.75;8.63;;;;;;;;;;1777083;79;21024;-66
2022/09/28 12:44:54;;;;;;;12.03;9.58;;;;;;;;;;1773756;79;21075;-68
2022/09/28 12:47:25;;;;;;;12.55;10.45;;;;;;;;;;1771620;79;20998;-69
2022/09/28 12:50:11;;;;;;;12.33;9.75;;;;;;;;;;1781909;79;21063;-69
2022/09/28 12:52:52;;;;;;;10.23;7.83;;;;;;;;;;1775840;79;21051;-68
2022/09/28 12:55:37;;;;;;;9.75;7.65;;;;;;;;;;1778554;79;21039;-69
2022/09/28 12:58:04;;;;;;;11.30;8.40;;;;;;;;;;1780276;79;21043;-67
2022/09/28 13:00:38;;;;;;;10.75;7.90;;;;;;;;;;1766819;79;21063;-68
2022/09/28 13:03:22;;;;;;;9.20;6.95;;;;;;;;;;1774548;79;21087;-68
2022/09/28 13:05:51;;;;;;;9.73;6.90;;;;;;;;;;1776059;79;21067;-69
2022/09/28 13:08:34;;;;;;;9.53;6.75;;;;;;;;;;1774023;79;21011;-68
2022/09/28 13:11:02;;;;;;;9.83;7.65;;;;;;;;;;1772844;80;21043;-68
2022/09/28 13:13:49;;;;;;;10.50;8.13;;;;;;;;;;1773175;79;21665;-67
2022/09/28 13:16:20;;;;;;;9.85;8.18;;;;;;;;;;1773616;80;21055;-67
2022/09/28 13:18:48;;;;;;;9.83;6.83;;;;;;;;;;1768554;80;22355;-71
2022/09/28 13:21:16;;;;;;;11.18;7.62;;;;;;;;;;1770727;80;21114;-72
2022/09/28 13:23:43;;;;;;;10.35;8.13;;;;;;;;;;1774299;80;21822;-69
2022/09/28 13:26:14;;;;;;;11.78;9.83;;;;;;;;;;1738033;82;21063;-67
2022/09/28 13:28:41;;;;;;;14.87;11.12;;;;;;;;;;1733889;82;21496;-66
2022/09/28 13:31:08;;;;;;;11.20;8.38;;;;;;;;;;1742091;80;21052;-67
2022/09/28 13:33:35;;;;;;;11.03;8.00;;;;;;;;;;1704665;83;20992;-68
2022/09/28 13:36:21;;;;;;;11.90;9.68;;;;;;;;;;1706804;83;21573;-67
2022/09/28 13:38:48;;;;;;;14.40;9.23;;;;;;;;;;1711487;83;21046;-68
2022/09/28 13:41:16;;;;;;;9.73;7.03;;;;;;;;;;1714625;83;21049;-67
2022/09/28 13:43:53;;;;;;;11.00;7.62;;;;;;;;;;1706466;83;21023;-67
2022/09/28 13:46:23;;;;;;;11.93;8.63;;;;;;;;;;1708417;83;21119;-67
2022/09/28 13:48:51;;;;;;;9.85;6.95;;;;;;;;;;1704344;83;21094;-67
2022/09/28 13:51:20;;;;;;;11.83;9.10;;;;;;;;;;1704997;83;21060;-68
2022/09/28 13:53:51;;;;;;;11.20;9.00;;;;;;;;;;1701363;83;21108;-66
2022/09/28 13:56:25;;;;;;;11.28;7.83;;;;;;;;;;1708604;83;21047;-67
2022/09/28 13:58:58;;;;;;;10.03;7.70;;;;;;;;;;1705655;83;21600;-67
2022/09/28 14:01:29;;;;;;;10.45;7.83;;;;;;;;;;1710274;83;21061;-69
2022/09/28 14:03:57;;;;;;;10.72;8.88;;;;;;;;;;1707494;83;21021;-67
2022/09/28 14:06:25;;;;;;;10.50;7.78;;;;;;;;;;1709685;83;20994;-67
2022/09/28 14:08:53;;;;;;;10.43;7.80;;;;;;;;;;1703196;83;21068;-67
2022/09/28 14:11:23;;;;;;;11.93;8.05;;;;;;;;;;1701847;83;21033;-67
2022/09/28 14:14:07;;;;;;;10.93;7.90;;;;;;;;;;1708396;83;21089;-67
2022/09/28 14:16:35;;;;;;;13.93;8.63;;;;;;;;;;1703855;83;21108;-67
2022/09/28 14:19:03;;;;;;;13.78;8.73;;;;;;;;;;1703742;83;20989;-67
2022/09/28 14:21:48;;;;;;;11.10;7.95;;;;;;;;;;1700288;83;21544;-66
2022/09/28 14:24:33;;;;;;;11.45;7.95;;;;;;;;;;1707924;83;21056;-70
2022/09/28 14:27:01;;;;;;;12.10;8.60;;;;;;;;;;1704130;83;21053;-66
2022/09/28 14:29:35;;;;;;;12.53;7.97;;;;;;;;;;1708360;83;21047;-69
2022/09/28 14:32:06;;;;;;;11.08;7.90;;;;;;;;;;1710534;83;21014;-66
2022/09/28 14:34:34;;;;;;;13.62;8.83;;;;;;;;;;1704490;83;21070;-67
2022/09/28 14:42:31;;;;;;;18.57;12.63;;;;;;;;;;1698497;83;21060;-66
2022/09/28 14:45:05;;;;;;;16.12;9.95;;;;;;;;;;1705373;83;21026;-67
2022/09/28 14:47:35;;;;;;;15.68;9.93;;;;;;;;;;1705290;83;21521;-66
2022/09/28 14:50:02;;;;;;;14.68;10.15;;;;;;;;;;1706719;83;21037;-66
2022/09/28 14:52:36;;;;;;;14.05;9.38;;;;;;;;;;1705992;83;21103;-66
2022/09/28 14:55:04;;;;;;;13.08;8.98;;;;;;;;;;1711760;83;21143;-66
2022/09/28 14:57:30;;;;;;;14.03;9.03;;;;;;;;;;1708753;83;21027;-67
2022/09/28 14:59:57;;;;;;;16.60;9.95;;;;;;;;;;1708156;83;21029;-67
2022/09/28 15:02:25;;;;;;;17.17;11.08;;;;;;;;;;1704952;83;21243;-67
2022/09/28 15:04:53;;;;;;;14.10;9.35;;;;;;;;;;1698537;83;22333;-67
2022/09/28 15:07:33;;;;;;;15.65;11.00;;;;;;;;;;1700042;83;21697;-67
2022/09/28 15:09:58;;;;;;;15.30;11.45;;;;;;;;;;1696307;83;21057;-67
2022/09/28 15:12:26;;;;;;;14.63;9.88;;;;;;;;;;1697832;83;21044;-67
2022/09/28 15:14:57;;;;;;;12.55;9.20;;;;;;;;;;1702584;83;21017;-66
2022/09/28 15:17:26;;;;;;;16.50;10.82;;;;;;;;;;1703251;83;21068;-66